Time;durP1;ratioP1;P1;durP2;ratioP2;P2;SDS_P1;SDS_P2;PMS_P1;PMS_P2;Temp;Humidity;BMP_temperature;BMP_pressure;BME280_temperature;BME280_humidity;BME280_pressure;Samples;Min_cycle;Max_cycle;Signal;HPM_P1;HPM_P2
2022/12/16 00:02:05;;;;;;;15.77;9.67;;;0.80;1.00;;;;;;5092866;28;20452;-74
2022/12/16 00:04:32;;;;;;;12.50;9.27;;;0.70;1.00;;;;;;5093290;28;20462;-74
2022/12/16 00:06:58;;;;;;;15.10;7.90;;;0.70;99.90;;;;;;5080657;28;20483;-74
2022/12/16 00:09:25;;;;;;;18.00;9.57;;;0.80;1.00;;;;;;5086050;28;20457;-73
2022/12/16 00:11:52;;;;;;;13.40;8.13;;;0.90;1.00;;;;;;5083346;28;20462;-70
2022/12/16 00:14:20;;;;;;;17.07;8.77;;;0.80;99.90;;;;;;5089474;28;20528;-73
2022/12/16 00:16:47;;;;;;;12.30;7.57;;;0.90;65.10;;;;;;5088244;28;20834;-74
2022/12/16 00:19:14;;;;;;;15.47;8.60;;;0.70;1.00;;;;;;5092780;28;20955;-73
2022/12/16 00:21:41;;;;;;;27.40;8.37;;;0.80;1.00;;;;;;5086121;28;20447;-73
2022/12/16 00:24:08;;;;;;;13.73;7.97;;;0.80;1.00;;;;;;5092352;28;20451;-73
2022/12/16 00:26:34;;;;;;;11.23;7.67;;;0.80;99.90;;;;;;5092976;28;20485;-73
2022/12/16 00:29:04;;;;;;;14.23;8.70;;;0.60;59.60;;;;;;5091723;28;20452;-73
2022/12/16 00:31:32;;;;;;;16.93;6.97;;;0.70;1.00;;;;;;5087185;28;20483;-73
2022/12/16 00:33:59;;;;;;;17.20;9.60;;;0.80;1.00;;;;;;5085496;28;20465;-73
2022/12/16 00:36:25;;;;;;;13.73;8.23;;;0.70;1.00;;;;;;5091130;28;20471;-73
2022/12/16 00:38:52;;;;;;;16.50;8.13;;;0.80;99.90;;;;;;5085930;28;20455;-72
2022/12/16 00:41:19;;;;;;;15.17;8.67;;;0.80;99.90;;;;;;5092356;28;20443;-74
2022/12/16 00:43:46;;;;;;;10.90;7.50;;;0.80;1.00;;;;;;5089581;28;20460;-73
2022/12/16 00:46:13;;;;;;;18.87;9.90;;;0.80;1.00;;;;;;5086624;28;20483;-73
2022/12/16 00:48:41;;;;;;;15.90;9.53;;;0.70;99.90;;;;;;5092615;28;20488;-73
2022/12/16 00:51:08;;;;;;;18.20;9.17;;;0.70;1.00;;;;;;5091435;28;20463;-73
2022/12/16 00:53:35;;;;;;;12.13;7.90;;;0.70;1.00;;;;;;5087980;28;20452;-73
2022/12/16 00:56:07;;;;;;;12.20;8.07;;;0.70;99.90;;;;;;5090482;28;20456;-74
2022/12/16 00:58:34;;;;;;;19.10;9.30;;;0.90;99.90;;;;;;5080394;28;20730;-73
2022/12/16 01:01:01;;;;;;;21.97;9.07;;;0.90;1.00;;;;;;5085962;28;20511;-73
2022/12/16 01:03:28;;;;;;;8.80;8.00;;;0.80;99.90;;;;;;5092012;28;20458;-73
2022/12/16 01:05:56;;;;;;;11.57;7.00;;;0.80;99.90;;;;;;5089507;28;20462;-73
2022/12/16 01:08:23;;;;;;;13.00;8.30;;;0.80;99.90;;;;;;5080353;28;20472;-73
2022/12/16 01:10:51;;;;;;;12.17;7.37;;;0.70;1.00;;;;;;5092322;28;20506;-73
2022/12/16 01:13:17;;;;;;;16.77;8.37;;;0.80;1.00;;;;;;5092107;28;20448;-72
2022/12/16 01:15:44;;;;;;;8.63;6.73;;;0.80;99.90;;;;;;5089511;28;20448;-73
2022/12/16 01:18:11;;;;;;;10.90;6.30;;;0.70;99.90;;;;;;5091315;28;20460;-73
2022/12/16 01:20:38;;;;;;;12.50;7.50;;;0.70;99.90;;;;;;5077944;28;20552;-73
2022/12/16 01:23:06;;;;;;;11.87;7.27;;;0.50;99.90;;;;;;5091526;28;20452;-73
2022/12/16 01:25:33;;;;;;;16.70;9.20;;;0.70;99.90;;;;;;5090561;28;20451;-73
2022/12/16 01:28:00;;;;;;;14.60;9.93;;;0.80;99.90;;;;;;5081434;28;20847;-71
2022/12/16 01:30:27;;;;;;;14.93;8.67;;;0.80;1.60;;;;;;5087319;28;20452;-71
2022/12/16 01:32:53;;;;;;;14.80;7.80;;;0.70;1.00;;;;;;5082979;28;20463;-71
2022/12/16 01:35:20;;;;;;;13.40;8.30;;;0.50;1.00;;;;;;5092267;28;20451;-71
2022/12/16 01:37:48;;;;;;;11.70;9.67;;;0.60;99.90;;;;;;5091245;28;20977;-73
2022/12/16 01:40:19;;;;;;;13.87;6.70;;;0.50;1.00;;;;;;5087532;28;20475;-73
2022/12/16 01:42:46;;;;;;;17.17;9.00;;;0.50;99.90;;;;;;5088256;28;20448;-73
2022/12/16 01:45:30;;;;;;;15.03;7.93;;;0.50;72.80;;;;;;5090007;28;20488;-73
2022/12/16 01:48:00;;;;;;;12.47;10.33;;;0.50;43.10;;;;;;5085490;28;20508;-73
2022/12/16 01:50:30;;;;;;;8.90;6.37;;;0.50;99.90;;;;;;5089716;28;20947;-73
2022/12/16 01:53:00;;;;;;;17.80;9.43;;;0.50;6.80;;;;;;5082047;28;20452;-73
2022/12/16 01:55:33;;;;;;;16.00;8.63;;;0.60;99.90;;;;;;5091433;28;20480;-73
2022/12/16 01:58:05;;;;;;;9.13;5.43;;;0.60;1.00;;;;;;5091017;28;20452;-73
2022/12/16 02:00:32;;;;;;;10.90;5.97;;;;;;;;;;5091525;28;20838;-73
2022/12/16 02:03:00;;;;;;;15.30;8.73;;;0.40;1.00;;;;;;5085548;28;20449;-73
2022/12/16 02:05:28;;;;;;;15.70;9.70;;;0.30;99.90;;;;;;5083063;28;20455;-73
2022/12/16 02:07:59;;;;;;;11.37;7.87;;;0.40;99.90;;;;;;5090054;28;20824;-73
2022/12/16 02:10:39;;;;;;;19.27;7.67;;;0.40;99.90;;;;;;5089251;28;20467;-73
2022/12/16 02:13:18;;;;;;;17.07;9.93;;;0.50;1.00;;;;;;5088313;28;20531;-73
2022/12/16 02:15:54;;;;;;;14.50;9.50;;;0.50;1.00;;;;;;5087899;28;20452;-73
2022/12/16 02:18:32;;;;;;;12.97;9.47;;;0.50;99.90;;;;;;5082967;28;20452;-73
2022/12/16 02:21:17;;;;;;;13.60;8.67;;;0.50;1.00;;;;;;5088764;28;20808;-73
2022/12/16 02:24:12;;;;;;;14.07;5.93;;;0.60;1.00;;;;;;5087657;28;20446;-73
2022/12/16 02:27:20;;;;;;;15.87;8.30;;;0.70;1.00;;;;;;5059997;28;20871;-73
2022/12/16 02:30:36;;;;;;;14.17;9.20;;;0.50;99.90;;;;;;5044411;28;20999;-72
2022/12/16 02:33:13;;;;;;;11.17;7.50;;;0.60;99.90;;;;;;5075593;28;20582;-73
2022/12/16 02:35:45;;;;;;;14.53;7.77;;;0.70;96.70;;;;;;5082778;28;20523;-73
2022/12/16 02:38:22;;;;;;;7.70;5.60;;;0.40;99.90;;;;;;5088582;28;20808;-75
2022/12/16 02:40:55;;;;;;;12.80;7.23;;;0.40;99.90;;;;;;5083587;28;20444;-72
2022/12/16 02:43:35;;;;;;;11.60;6.30;;;0.50;99.90;;;;;;5081898;28;20455;-73
2022/12/16 02:46:05;;;;;;;13.50;7.60;;;0.50;99.90;;;;;;5090262;28;20453;-74
2022/12/16 02:48:32;;;;;;;15.13;6.60;;;0.40;1.00;;;;;;5085502;28;20516;-73
2022/12/16 02:50:59;;;;;;;9.40;6.23;;;0.40;1.00;;;;;;5084702;28;20451;-73
2022/12/16 02:53:26;;;;;;;13.47;8.20;;;0.50;99.90;;;;;;5089679;28;20490;-73
2022/12/16 02:56:00;;;;;;;8.17;5.80;;;0.40;99.90;;;;;;5070334;28;20452;-73
2022/12/16 02:58:34;;;;;;;12.50;7.67;;;0.30;1.00;;;;;;5078227;28;20447;-73
2022/12/16 03:01:11;;;;;;;17.07;7.27;;;0.30;1.00;;;;;;5089940;28;20445;-74
2022/12/16 03:03:43;;;;;;;11.93;6.63;;;0.20;99.90;;;;;;5090663;28;20915;-74
2022/12/16 03:06:14;;;;;;;14.27;6.90;;;0.20;99.90;;;;;;5089642;28;20442;-73
2022/12/16 03:08:46;;;;;;;12.37;6.40;;;0.20;1.00;;;;;;5084420;28;20774;-73
2022/12/16 03:11:13;;;;;;;14.23;8.27;;;0.00;99.90;;;;;;5084819;28;20937;-74
2022/12/16 03:13:45;;;;;;;9.53;6.60;;;0.10;1.00;;;;;;5086639;28;20438;-74
2022/12/16 03:16:17;;;;;;;12.23;7.93;;;0.00;1.00;;;;;;5076059;28;20445;-74
2022/12/16 03:18:47;;;;;;;18.63;9.67;;;0.20;1.00;;;;;;5076683;28;20920;-73
2022/12/16 03:21:15;;;;;;;13.63;8.60;;;0.40;1.00;;;;;;5086397;28;20950;-73
2022/12/16 03:23:47;;;;;;;9.47;6.40;;;0.30;1.00;;;;;;5094148;28;20456;-73
2022/12/16 03:26:20;;;;;;;12.60;9.47;;;0.40;99.90;;;;;;5094263;28;20772;-73
2022/12/16 03:28:54;;;;;;;7.00;5.27;;;0.50;16.40;;;;;;5079452;28;20476;-73
2022/12/16 03:31:31;;;;;;;20.93;8.13;;;0.30;99.90;;;;;;5093764;28;20443;-73
2022/12/16 03:34:06;;;;;;;16.13;8.30;;;0.00;1.00;;;;;;5092489;28;20474;-73
2022/12/16 03:36:36;;;;;;;12.30;6.80;;;0.30;1.00;;;;;;5093424;28;20453;-73
2022/12/16 03:39:06;;;;;;;12.47;5.77;;;0.20;99.90;;;;;;5093128;28;20462;-73
2022/12/16 03:41:34;;;;;;;14.17;7.03;;;0.30;99.90;;;;;;5088128;28;20447;-73
2022/12/16 03:44:01;;;;;;;16.27;8.13;;;0.20;1.00;;;;;;5082178;28;20455;-73
2022/12/16 03:46:29;;;;;;;9.70;6.90;;;0.40;1.00;;;;;;5093902;28;20454;-73
2022/12/16 03:48:56;;;;;;;12.07;6.10;;;0.20;1.00;;;;;;5092894;28;20495;-73
2022/12/16 03:51:23;;;;;;;11.27;7.47;;;0.30;99.90;;;;;;5093568;28;20802;-73
2022/12/16 03:53:50;;;;;;;8.10;5.40;;;-0.10;99.90;;;;;;5092826;28;20448;-73
2022/12/16 03:56:16;;;;;;;10.80;6.67;;;0.10;1.00;;;;;;5077873;28;20455;-73
2022/12/16 03:58:45;;;;;;;16.23;7.20;;;0.30;1.00;;;;;;5079464;28;20468;-73
2022/12/16 04:01:14;;;;;;;9.17;6.27;;;0.30;99.90;;;;;;5088366;28;20467;-73
2022/12/16 04:03:42;;;;;;;15.27;6.00;;;0.30;99.90;;;;;;5094115;28;20539;-73
2022/12/16 04:06:09;;;;;;;14.37;10.10;;;0.40;99.90;;;;;;5083632;28;20451;-73
2022/12/16 04:08:36;;;;;;;14.60;7.33;;;0.40;1.00;;;;;;5079651;28;20499;-73
2022/12/16 04:25:00;;;;;;;7.50;4.53;;;0.50;99.90;;;;;;5093078;28;20949;-73
2022/12/16 04:27:28;;;;;;;13.60;6.50;;;0.20;1.00;;;;;;5093538;28;20503;-73
